Time;durP1;ratioP1;P1;durP2;ratioP2;P2;SDS_P1;SDS_P2;PMS_P1;PMS_P2;Temp;Humidity;BMP_temperature;BMP_pressure;BME280_temperature;BME280_humidity;BME280_pressure;Samples;Min_cycle;Max_cycle;Signal;HPM_P1;HPM_P2
2022/09/25 00:00:29;;;;;;;15.38;9.55;;;;;;;9.91;100.00;98025.28;2641452;27;20050;-81
2022/09/25 00:02:05;;;;;;;15.60;10.07;;;;;;;10.18;100.00;98026.13;2642532;27;20138;-86
2022/09/25 00:03:24;;;;;;;16.33;10.00;;;;;;;10.25;100.00;98024.16;2643861;27;20414;-82
2022/09/25 00:04:39;;;;;;;16.10;9.65;;;;;;;10.28;100.00;98027.53;2641275;27;20046;-84
2022/09/25 00:06:07;;;;;;;13.48;9.15;;;;;;;10.34;100.00;98031.72;2641530;27;20043;-83
2022/09/25 00:07:23;;;;;;;13.07;9.35;;;;;;;10.31;100.00;98027.44;2643387;27;20093;-83
2022/09/25 00:08:39;;;;;;;15.43;9.35;;;;;;;10.30;100.00;98035.34;2639734;27;20071;-81
2022/09/25 00:09:55;;;;;;;12.52;8.68;;;;;;;10.34;100.00;98031.72;2643608;27;20047;-81
2022/09/25 00:11:14;;;;;;;12.25;8.45;;;;;;;10.37;100.00;98033.38;2642026;27;20051;-81
2022/09/25 00:12:29;;;;;;;11.80;8.43;;;;;;;10.14;100.00;98030.63;2643857;27;20043;-82
2022/09/25 00:13:45;;;;;;;12.93;9.48;;;;;;;10.14;100.00;98032.38;2644431;27;20043;-81
2022/09/25 00:15:02;;;;;;;12.68;9.20;;;;;;;10.38;100.00;98022.84;2642894;27;20043;-81
2022/09/25 00:16:20;;;;;;;13.32;9.15;;;;;;;10.44;100.00;98024.44;2641729;27;20055;-81
2022/09/25 00:17:35;;;;;;;13.07;9.07;;;;;;;10.44;100.00;98022.69;2641662;27;20051;-80
2022/09/25 00:20:25;;;;;;;12.48;9.23;;;;;;;10.43;100.00;98025.34;2644188;27;20590;-81
2022/09/25 00:21:42;;;;;;;13.65;9.02;;;;;;;10.49;100.00;98019.03;2643011;27;20044;-81
2022/09/25 00:23:01;;;;;;;12.00;8.57;;;;;;;10.50;100.00;98021.63;2643069;27;20084;-81
2022/09/25 00:24:17;;;;;;;14.25;8.65;;;;;;;10.39;100.00;98014.09;2642564;27;20499;-84
2022/09/25 00:25:33;;;;;;;11.25;8.48;;;;;;;10.49;100.00;98026.91;2641548;27;20048;-86
2022/09/25 00:26:48;;;;;;;16.67;9.13;;;;;;;10.50;100.00;98021.63;2641415;27;20047;-81
2022/09/25 00:28:04;;;;;;;11.95;8.93;;;;;;;10.56;100.00;98020.56;2643409;27;20066;-81
2022/09/25 00:29:20;;;;;;;12.00;8.45;;;;;;;10.55;100.00;98024.91;2644378;27;20054;-80
2022/09/25 00:30:39;;;;;;;18.33;9.98;;;;;;;10.40;100.00;98014.94;2641025;27;20051;-85
2022/09/25 00:31:55;;;;;;;16.90;10.98;;;;;;;10.52;100.00;98025.03;2641763;27;20193;-83
2022/09/25 00:33:11;;;;;;;19.05;12.00;;;;;;;10.48;100.00;98015.59;2642578;27;20050;-81
2022/09/25 00:34:27;;;;;;;17.63;10.80;;;;;;;10.54;100.00;98009.25;2632196;28;20051;-82
2022/09/25 00:35:42;;;;;;;21.02;11.07;;;;;;;10.53;100.00;98010.16;2635397;27;20041;-81
2022/09/25 00:36:58;;;;;;;20.95;12.60;;;;;;;10.36;100.00;98008.97;2641429;27;20040;-81
2022/09/25 00:38:13;;;;;;;17.23;11.93;;;;;;;10.15;100.00;98010.53;2642040;27;20051;-83
2022/09/25 00:39:30;;;;;;;18.88;11.93;;;;;;;10.03;100.00;98017.88;2641224;27;20482;-81
2022/09/25 00:40:46;;;;;;;17.67;11.48;;;;;;;10.00;100.00;98012.75;2642344;27;20478;-81
2022/09/25 00:42:01;;;;;;;17.63;10.77;;;;;;;10.11;100.00;98009.78;2642232;27;20143;-85
2022/09/25 00:43:43;;;;;;;15.95;10.65;;;;;;;10.16;100.00;98017.47;2641363;27;20054;-81
2022/09/25 00:45:00;;;;;;;15.63;11.05;;;;;;;10.15;100.00;98014.03;2643127;27;20096;-81
2022/09/25 00:46:22;;;;;;;17.15;10.80;;;;;;;10.21;100.00;98015.59;2641947;27;20100;-81
2022/09/25 00:47:52;;;;;;;16.23;10.65;;;;;;;10.12;100.00;98010.66;2644137;27;20473;-84
2022/09/25 00:49:16;;;;;;;16.95;11.02;;;;;;;10.38;100.00;98016.78;2642121;27;20500;-81
2022/09/25 00:50:43;;;;;;;18.13;10.23;;;;;;;10.22;100.00;98013.81;2641568;27;20100;-82
2022/09/25 00:52:05;;;;;;;16.00;10.27;;;;;;;10.21;100.00;98015.59;2643023;27;20047;-82
2022/09/25 00:53:28;;;;;;;14.63;10.43;;;;;;;10.31;100.00;98013.50;2642337;27;20490;-82
2022/09/25 00:54:57;;;;;;;15.63;10.25;;;;;;;10.41;100.00;98020.19;2640467;27;20079;-82
2022/09/25 00:56:13;;;;;;;16.25;11.20;;;;;;;10.49;100.00;98021.66;2641184;27;20074;-83
2022/09/25 00:57:32;;;;;;;15.10;10.60;;;;;;;10.49;100.00;98013.81;2640936;27;20063;-81
2022/09/25 00:58:47;;;;;;;17.48;11.55;;;;;;;10.54;100.00;98019.72;2643109;27;20133;-81
2022/09/25 01:00:10;;;;;;;14.30;10.35;;;;;;;10.49;100.00;98019.91;2643324;28;20051;-85
2022/09/25 01:01:26;;;;;;;21.48;11.52;;;;;;;10.56;100.00;98015.31;2643696;27;20044;-82
2022/09/25 01:02:45;;;;;;;15.98;10.38;;;;;;;10.58;100.00;98016.97;2642595;27;20154;-82
2022/09/25 01:04:01;;;;;;;15.30;10.55;;;;;;;10.58;100.00;98003.88;2643399;27;20553;-81
2022/09/25 01:05:22;;;;;;;14.48;9.75;;;;;;;10.58;100.00;98009.09;2640677;27;20052;-81
2022/09/25 01:06:38;;;;;;;14.93;9.77;;;;;;;10.58;100.00;98008.25;2640945;28;20070;-83
2022/09/25 01:07:56;;;;;;;18.75;10.50;;;;;;;10.56;100.00;98004.84;2640607;28;20221;-81
2022/09/25 01:09:11;;;;;;;14.00;9.98;;;;;;;10.52;100.00;98006.72;2642540;27;20087;-83
2022/09/25 01:10:28;;;;;;;14.40;10.32;;;;;;;10.51;100.00;98006.75;2640905;28;20423;-81
2022/09/25 01:11:44;;;;;;;17.77;11.20;;;;;;;10.53;100.00;98004.94;2641714;28;20044;-81
2022/09/25 01:12:59;;;;;;;16.92;12.40;;;;;;;10.55;100.00;97998.75;2642967;27;20459;-83
2022/09/25 01:14:16;;;;;;;17.58;11.95;;;;;;;10.54;100.00;98004.91;2640492;28;20071;-82
2022/09/25 01:15:50;;;;;;;15.85;11.25;;;;;;;10.57;100.00;98003.94;2641117;28;20473;-82
2022/09/25 01:17:42;;;;;;;20.02;11.50;;;;;;;10.57;100.00;98010.00;2642281;28;20055;-82
2022/09/25 01:19:09;;;;;;;14.00;10.70;;;;;;;10.45;100.00;98010.44;2623424;28;20055;-81
2022/09/25 01:20:38;;;;;;;14.27;9.77;;;;;;;10.29;100.00;98007.47;2644121;28;20048;-81
2022/09/25 01:22:09;;;;;;;13.88;9.77;;;;;;;10.21;100.00;98012.97;2640719;28;20063;-82
2022/09/25 01:23:59;;;;;;;14.93;10.48;;;;;;;10.30;100.00;98006.56;2644494;28;20043;-83
2022/09/25 01:25:31;;;;;;;16.42;10.60;;;;;;;10.30;100.00;98007.41;2641168;28;20055;-83
2022/09/25 01:27:05;;;;;;;13.32;10.13;;;;;;;10.34;100.00;98004.69;2640510;28;20799;-82
2022/09/25 01:28:28;;;;;;;15.77;9.43;;;;;;;10.11;100.00;98003.72;2642874;28;20051;-82
2022/09/25 01:29:43;;;;;;;15.45;10.88;;;;;;;10.09;100.00;98013.38;2640792;28;20044;-82
2022/09/25 01:31:13;;;;;;;15.15;9.88;;;;;;;10.30;100.00;98002.16;2643512;28;20525;-82
2022/09/25 01:32:51;;;;;;;14.98;10.45;;;;;;;10.34;100.00;98005.53;2641703;28;20098;-83
2022/09/25 01:34:27;;;;;;;16.92;9.93;;;;;;;10.41;100.00;98008.84;2629597;28;20493;-82
2022/09/25 01:36:15;;;;;;;14.18;9.15;;;;;;;10.26;100.00;98002.31;2639233;27;20473;-83
2022/09/25 01:37:35;;;;;;;14.32;8.95;;;;;;;10.13;100.00;98002.75;2610651;27;20135;-82
2022/09/25 01:38:56;;;;;;;13.10;8.65;;;;;;;10.11;100.00;98003.72;2644291;27;20086;-85
2022/09/25 01:41:00;;;;;;;13.75;9.00;;;;;;;10.19;100.00;97999.06;2644884;27;20043;-82
2022/09/25 01:42:26;;;;;;;12.38;8.93;;;;;;;10.30;100.00;98007.41;2591205;28;20072;-81
2022/09/25 01:44:06;;;;;;;12.82;8.85;;;;;;;10.31;100.00;98000.44;2613322;27;20043;-82
2022/09/25 01:45:35;;;;;;;11.60;8.27;;;;;;;10.29;100.00;97991.78;2645045;27;20123;-82
2022/09/25 01:46:53;;;;;;;12.63;8.13;;;;;;;10.25;100.00;97990.16;2645379;27;20059;-83
2022/09/25 01:48:12;;;;;;;12.45;8.13;;;;;;;10.25;100.00;97995.38;2643507;27;20054;-82
2022/09/25 01:49:32;;;;;;;13.40;9.18;;;;;;;10.23;100.00;97995.44;2645777;27;20043;-82
2022/09/25 01:51:02;;;;;;;12.52;8.20;;;;;;;10.14;100.00;98001.84;2643275;27;20043;-82
2022/09/25 01:52:24;;;;;;;11.82;8.45;;;;;;;10.04;100.00;97998.66;2642836;27;20044;-83
2022/09/25 01:53:51;;;;;;;14.05;9.23;;;;;;;9.89;100.00;98000.03;2644149;27;20043;-82
2022/09/25 01:55:16;;;;;;;14.30;9.13;;;;;;;9.87;100.00;97999.25;2643468;27;20875;-82
2022/09/25 01:56:37;;;;;;;13.88;9.23;;;;;;;9.87;100.00;98007.09;2622067;28;20581;-81
2022/09/25 01:58:16;;;;;;;14.18;9.13;;;;;;;9.97;100.00;98001.53;2632824;27;20705;-82
2022/09/25 01:59:37;;;;;;;12.43;9.05;;;;;;;9.98;100.00;97998.00;2642550;27;20092;-82
2022/09/25 02:00:58;;;;;;;14.20;9.43;;;;;;;9.93;100.00;97990.34;2643921;27;20485;-82
2022/09/25 02:02:21;;;;;;;14.13;8.80;;;;;;;9.94;100.00;97999.03;2645431;27;20080;-82
2022/09/25 02:03:46;;;;;;;13.38;8.90;;;;;;;10.00;100.00;97997.06;2643099;27;20039;-83
2022/09/25 02:05:06;;;;;;;13.77;9.40;;;;;;;10.01;100.00;97987.47;2645385;27;20119;-82
2022/09/25 02:06:22;;;;;;;15.13;9.32;;;;;;;10.03;100.00;97996.94;2642480;27;20648;-82
2022/09/25 02:07:47;;;;;;;12.70;9.18;;;;;;;9.93;100.00;97990.34;2643323;27;20047;-82
2022/09/25 02:09:12;;;;;;;15.73;9.88;;;;;;;9.86;100.00;97994.91;2644725;27;20055;-82
2022/09/25 02:10:34;;;;;;;14.50;9.35;;;;;;;9.80;100.00;97989.88;2643709;27;20124;-83
2022/09/25 02:11:54;;;;;;;15.32;9.52;;;;;;;9.81;100.00;97986.34;2642866;27;20039;-82
2022/09/25 02:13:16;;;;;;;16.17;9.57;;;;;;;9.82;100.00;97979.38;2643385;27;20051;-82
2022/09/25 02:14:43;;;;;;;15.45;9.40;;;;;;;9.75;100.00;97984.78;2642494;27;20744;-82
2022/09/25 02:16:05;;;;;;;19.60;9.55;;;;;;;9.72;100.00;97982.28;2643429;27;20051;-82
2022/09/25 02:21:09;;;;;;;18.85;11.25;;;;;;;9.79;100.00;97976.84;2599119;28;20044;-83
2022/09/25 02:22:33;;;;;;;17.17;10.85;;;;;;;9.66;100.00;97979.88;2599355;28;20057;-82
2022/09/25 02:23:52;;;;;;;15.43;10.35;;;;;;;9.63;100.00;97982.56;2599471;28;20053;-82
2022/09/25 02:25:38;;;;;;;16.45;10.57;;;;;;;9.68;100.00;97974.56;2628517;27;20051;-83
2022/09/25 02:26:55;;;;;;;18.27;10.50;;;;;;;9.78;100.00;97982.97;2609352;27;20143;-84
2022/09/25 02:28:10;;;;;;;14.90;10.02;;;;;;;9.82;100.00;97979.38;2643471;27;20138;-82
2022/09/25 02:29:26;;;;;;;16.65;9.95;;;;;;;9.88;100.00;97985.25;2643538;27;20043;-83
2022/09/25 02:30:43;;;;;;;16.35;9.88;;;;;;;9.83;100.00;97984.53;2644424;27;20043;-82
2022/09/25 02:32:04;;;;;;;14.85;9.75;;;;;;;9.89;100.00;97984.34;2644703;27;20072;-82
2022/09/25 02:33:20;;;;;;;18.42;10.98;;;;;;;9.94;100.00;97983.34;2642470;27;20043;-82
2022/09/25 02:34:36;;;;;;;18.08;11.20;;;;;;;9.86;100.00;97980.97;2645112;27;20497;-86
2022/09/25 02:35:52;;;;;;;14.60;9.57;;;;;;;9.82;100.00;97976.75;2642220;27;21055;-82
2022/09/25 02:37:12;;;;;;;15.63;10.23;;;;;;;9.85;100.00;97974.91;2643921;27;20047;-83
2022/09/25 02:38:30;;;;;;;16.95;9.23;;;;;;;9.58;100.00;97985.34;2645296;27;20061;-83
2022/09/25 02:39:50;;;;;;;13.43;9.27;;;;;;;9.80;100.00;97983.81;2642099;27;20051;-83
2022/09/25 02:41:20;;;;;;;12.32;8.95;;;;;;;9.38;100.00;97983.34;2642203;27;20085;-83
2022/09/25 02:42:55;;;;;;;17.20;9.43;;;;;;;9.52;100.00;97982.91;2644439;27;20206;-81
2022/09/25 02:44:25;;;;;;;14.05;9.15;;;;;;;9.65;100.00;97978.16;2641957;27;20164;-82
2022/09/25 02:45:53;;;;;;;12.77;9.18;;;;;;;9.63;100.00;97974.72;2641730;27;20047;-84
2022/09/25 02:47:21;;;;;;;13.93;8.45;;;;;;;9.69;100.00;97976.28;2643463;27;20047;-83
2022/09/25 02:49:15;;;;;;;20.52;9.88;;;;;;;9.64;100.00;97973.84;2645538;27;20058;-82
2022/09/25 02:50:42;;;;;;;14.43;9.13;;;;;;;9.63;100.00;97977.31;2645099;27;20500;-82
2022/09/25 02:52:09;;;;;;;14.50;9.13;;;;;;;9.68;100.00;97972.81;2643968;27;20879;-83
2022/09/25 02:53:40;;;;;;;15.48;9.10;;;;;;;9.63;100.00;97977.31;2644939;27;20062;-83
2022/09/25 02:55:11;;;;;;;24.73;9.90;;;;;;;9.67;100.00;97971.13;2643880;27;20440;-83
2022/09/25 02:56:38;;;;;;;15.95;8.50;;;;;;;9.79;100.00;97982.09;2645287;27;20043;-83
2022/09/25 02:58:14;;;;;;;13.40;9.23;;;;;;;9.69;100.00;97982.38;2642395;27;20051;-82
2022/09/25 02:59:36;;;;;;;13.27;8.48;;;;;;;9.69;100.00;97978.88;2642467;27;20051;-82
2022/09/25 03:00:55;;;;;;;11.50;8.80;;;;;;;9.65;100.00;97978.16;2642272;27;20391;-82
2022/09/25 03:02:12;;;;;;;12.65;8.82;;;;;;;9.63;100.00;97972.09;2644262;27;20039;-82
2022/09/25 03:03:30;;;;;;;14.10;8.65;;;;;;;9.58;100.00;97976.63;2645653;27;20075;-83
2022/09/25 03:04:49;;;;;;;13.27;8.57;;;;;;;9.45;100.00;97973.56;2643304;27;20100;-82
2022/09/25 03:06:07;;;;;;;14.23;9.02;;;;;;;9.35;100.00;97972.97;2643895;27;20078;-82
2022/09/25 03:07:23;;;;;;;14.40;9.27;;;;;;;9.32;100.00;97970.44;2642275;27;20061;-83
2022/09/25 03:08:45;;;;;;;14.95;9.10;;;;;;;9.25;100.00;97971.56;2641866;27;20043;-82
2022/09/25 03:10:02;;;;;;;;;;;;;;;9.31;100.00;97972.22;2643108;27;20051;-82
2022/09/25 03:11:20;;;;;;;20.55;9.40;;;;;;;9.37;100.00;97976.41;2645059;27;19962;-82
2022/09/25 03:12:35;;;;;;;15.30;9.38;;;;;;;9.42;100.00;97969.28;2643218;27;20081;-82
2022/09/25 03:14:09;;;;;;;12.60;9.18;;;;;;;9.35;100.00;97972.97;2644440;27;20578;-82
2022/09/25 03:15:25;;;;;;;16.70;8.77;;;;;;;9.43;100.00;97973.59;2643965;27;20120;-82
2022/09/25 03:16:48;;;;;;;12.82;8.90;;;;;;;9.30;100.00;97974.88;2643039;27;20056;-82
2022/09/25 03:18:04;;;;;;;13.25;8.35;;;;;;;9.28;100.00;97972.28;2642768;27;20051;-85
2022/09/25 03:19:20;;;;;;;14.35;9.23;;;;;;;9.31;100.00;97973.97;2643303;27;20048;-82
2022/09/25 03:20:36;;;;;;;14.52;10.00;;;;;;;9.43;100.00;97981.44;2643559;27;20063;-84
2022/09/25 03:21:53;;;;;;;13.20;8.57;;;;;;;9.32;100.00;97970.44;2644738;27;20066;-82
2022/09/25 03:23:09;;;;;;;14.80;8.65;;;;;;;9.35;100.00;97967.72;2641968;27;20138;-82
2022/09/25 03:24:24;;;;;;;12.98;8.95;;;;;;;9.45;100.00;97965.72;2642333;27;20549;-82
2022/09/25 03:25:40;;;;;;;12.57;8.77;;;;;;;9.44;100.00;97967.47;2641614;27;20128;-83
2022/09/25 03:26:56;;;;;;;12.10;8.43;;;;;;;9.36;100.00;97964.25;2643062;27;20190;-82
2022/09/25 03:28:11;;;;;;;12.30;8.45;;;;;;;9.28;100.00;97966.22;2642580;27;20058;-82
2022/09/25 03:29:28;;;;;;;12.82;8.57;;;;;;;9.38;100.00;97972.88;2644173;27;20047;-82
2022/09/25 03:30:54;;;;;;;15.30;8.52;;;;;;;9.51;100.00;97967.28;2642341;27;20059;-82
2022/09/25 03:32:10;;;;;;;11.30;8.02;;;;;;;9.50;100.00;97970.78;2643879;27;20052;-83
2022/09/25 03:33:28;;;;;;;12.68;8.60;;;;;;;9.45;100.00;97961.31;2642604;27;20574;-83
2022/09/25 03:34:43;;;;;;;13.23;9.30;;;;;;;9.38;100.00;97962.44;2642096;27;20154;-82
2022/09/25 03:36:01;;;;;;;13.45;9.25;;;;;;;9.44;100.00;97959.63;2643851;27;20097;-82
2022/09/25 03:37:17;;;;;;;14.18;9.02;;;;;;;9.56;100.00;97960.13;2641585;27;20057;-83
2022/09/25 03:38:32;;;;;;;12.65;9.00;;;;;;;9.59;100.00;97963.53;2641893;27;20791;-84
2022/09/25 03:39:48;;;;;;;13.48;9.32;;;;;;;9.64;100.00;97965.13;2641729;27;20077;-89
2022/09/25 03:41:08;;;;;;;13.27;8.77;;;;;;;9.59;100.00;97963.53;2643267;27;20585;-82
2022/09/25 03:42:26;;;;;;;11.10;8.27;;;;;;;9.71;100.00;97964.88;2641766;27;20130;-82
2022/09/25 03:43:42;;;;;;;12.68;9.07;;;;;;;9.74;100.00;97959.53;2643395;27;20082;-82
2022/09/25 03:44:57;;;;;;;15.48;9.27;;;;;;;9.58;100.00;97960.94;2643350;27;20075;-85
2022/09/25 03:46:14;;;;;;;14.48;9.13;;;;;;;9.55;100.00;97964.50;2643194;27;20051;-82
2022/09/25 03:47:29;;;;;;;14.30;8.82;;;;;;;9.59;100.00;97960.03;2642458;27;20429;-81
2022/09/25 03:48:45;;;;;;;14.57;9.05;;;;;;;9.40;100.00;97967.59;2630295;28;20052;-82
2022/09/25 03:50:01;;;;;;;14.25;9.07;;;;;;;9.37;100.00;97971.19;2634565;27;20051;-82
2022/09/25 03:51:17;;;;;;;13.60;9.85;;;;;;;9.47;100.00;97967.34;2643198;27;20092;-82
2022/09/25 03:52:33;;;;;;;16.10;9.85;;;;;;;9.67;100.00;97957.19;2643466;27;20054;-85
2022/09/25 03:53:50;;;;;;;13.07;9.02;;;;;;;9.66;100.00;97964.19;2641066;27;20043;-81
2022/09/25 03:55:05;;;;;;;14.05;8.55;;;;;;;9.72;100.00;97966.59;2643677;27;20078;-82
2022/09/25 03:56:24;;;;;;;13.90;9.50;;;;;;;9.75;100.00;97965.63;2631226;28;20139;-82
2022/09/25 03:57:40;;;;;;;13.50;8.98;;;;;;;9.74;100.00;97964.78;2638328;27;20050;-82
2022/09/25 03:58:56;;;;;;;12.82;9.15;;;;;;;9.70;100.00;97971.00;2641675;27;20035;-85
2022/09/25 04:00:12;;;;;;;13.48;8.77;;;;;;;9.67;100.00;97959.78;2642333;27;20050;-82
2022/09/25 04:01:28;;;;;;;11.85;8.32;;;;;;;9.64;100.00;97966.00;2641187;27;20055;-83
2022/09/25 04:02:44;;;;;;;12.95;9.02;;;;;;;9.56;100.00;97960.13;2643256;27;20739;-83
2022/09/25 04:04:01;;;;;;;13.10;7.80;;;;;;;9.51;100.00;97962.06;2642906;27;20440;-82
2022/09/25 04:05:18;;;;;;;13.27;8.20;;;;;;;9.64;100.00;97968.59;2641714;27;20445;-82
2022/09/25 04:06:35;;;;;;;11.32;7.93;;;;;;;9.56;100.00;97970.59;2641549;27;20043;-82
2022/09/25 04:07:50;;;;;;;14.52;8.68;;;;;;;9.37;100.00;97970.31;2643335;27;20051;-84
2022/09/25 04:09:06;;;;;;;13.23;8.15;;;;;;;9.44;100.00;97967.47;2644350;27;20115;-83
2022/09/25 04:10:21;;;;;;;14.23;7.40;;;;;;;9.38;100.00;97977.25;2644486;27;20556;-83
2022/09/25 04:11:37;;;;;;;11.15;7.60;;;;;;;9.50;100.00;97971.63;2632855;28;20624;-82
2022/09/25 04:12:54;;;;;;;11.98;7.93;;;;;;;9.63;100.00;97966.88;2636039;27;20066;-82
2022/09/25 04:14:11;;;;;;;11.30;7.55;;;;;;;9.61;100.00;97969.56;2644740;27;20052;-82
2022/09/25 04:15:26;;;;;;;12.15;7.65;;;;;;;9.44;100.00;97964.00;2641947;27;20051;-82
2022/09/25 04:16:42;;;;;;;11.88;7.80;;;;;;;9.45;100.00;97976.16;2642923;27;20486;-82
2022/09/25 04:17:58;;;;;;;12.20;7.90;;;;;;;9.52;100.00;97975.06;2644380;27;20224;-82
2022/09/25 04:19:14;;;;;;;11.98;8.05;;;;;;;9.45;100.00;97971.78;2642520;27;20047;-82
2022/09/25 04:20:30;;;;;;;13.48;7.57;;;;;;;9.47;100.00;97966.53;2643120;27;20795;-83
2022/09/25 04:21:46;;;;;;;10.13;7.38;;;;;;;9.46;100.00;97976.09;2642887;27;20099;-83
2022/09/25 04:23:01;;;;;;;13.30;8.32;;;;;;;9.48;100.00;97970.84;2644240;27;20051;-82
2022/09/25 04:25:52;;;;;;;14.05;8.13;;;;;;;9.32;100.00;97971.31;2643313;27;20051;-82
2022/09/25 04:27:08;;;;;;;11.38;7.50;;;;;;;9.16;100.00;97970.91;2643438;27;20047;-84
2022/09/25 04:28:24;;;;;;;10.50;7.85;;;;;;;9.32;100.00;97973.06;2642348;27;20058;-82
2022/09/25 04:29:41;;;;;;;13.27;8.38;;;;;;;9.40;100.00;97968.47;2641146;27;20043;-83
2022/09/25 04:30:57;;;;;;;10.40;7.57;;;;;;;9.43;100.00;97964.91;2642603;27;20176;-82
2022/09/25 04:33:49;;;;;;;13.95;8.27;;;;;;;9.50;100.00;97976.00;2643459;27;20054;-82
2022/09/25 04:35:05;;;;;;;14.05;8.13;;;;;;;9.58;100.00;97971.41;2643825;27;20043;-82
2022/09/25 04:36:20;;;;;;;15.48;8.45;;;;;;;9.60;100.00;97973.06;2644669;27;20050;-82
2022/09/25 04:37:36;;;;;;;12.00;8.43;;;;;;;9.58;100.00;97976.63;2643931;27;20570;-83
2022/09/25 04:38:51;;;;;;;10.90;7.93;;;;;;;9.46;100.00;97970.03;2642070;27;20111;-82
2022/09/25 04:40:08;;;;;;;11.10;7.38;;;;;;;9.39;100.00;97971.97;2643620;27;20414;-82
2022/09/25 04:41:23;;;;;;;10.27;7.53;;;;;;;9.45;100.00;97974.41;2640754;27;20054;-85
2022/09/25 04:42:40;;;;;;;13.55;7.95;;;;;;;9.35;100.00;97969.50;2642389;27;20039;-82
2022/09/25 04:43:56;;;;;;;10.55;7.50;;;;;;;9.24;100.00;97968.06;2643700;27;20513;-83
2022/09/25 04:45:11;;;;;;;14.82;8.35;;;;;;;9.15;100.00;97970.94;2642134;27;20054;-82
2022/09/25 04:46:27;;;;;;;12.23;8.07;;;;;;;9.12;100.00;97971.03;2641577;27;20071;-82
2022/09/25 04:47:43;;;;;;;10.52;7.72;;;;;;;9.11;100.00;97974.56;2642015;27;20378;-86
2022/09/25 04:48:58;;;;;;;13.73;8.45;;;;;;;9.13;100.00;97972.75;2640608;27;20048;-83
2022/09/25 04:50:14;;;;;;;10.55;7.57;;;;;;;9.19;100.00;97976.03;2642247;27;20093;-82
2022/09/25 04:51:29;;;;;;;11.95;8.38;;;;;;;9.24;100.00;97975.06;2641880;27;20129;-83
2022/09/25 04:52:45;;;;;;;14.57;9.25;;;;;;;9.25;100.00;97979.38;2642064;27;20063;-82
2022/09/25 04:54:01;;;;;;;13.23;8.32;;;;;;;9.32;100.00;97975.66;2629242;28;20427;-81
2022/09/25 04:55:23;;;;;;;13.98;8.82;;;;;;;9.28;100.00;97974.91;2633910;27;20054;-82
2022/09/25 04:56:38;;;;;;;12.63;8.48;;;;;;;9.37;100.00;97979.03;2642716;27;20051;-82
2022/09/25 04:57:59;;;;;;;11.50;7.65;;;;;;;9.43;100.00;97972.75;2640493;27;20051;-82
2022/09/25 04:59:17;;;;;;;13.00;7.50;;;;;;;9.46;100.00;97970.88;2641064;27;20123;-82
2022/09/25 05:00:33;;;;;;;14.05;8.05;;;;;;;9.50;100.00;97976.88;2642300;27;20055;-82
2022/09/25 05:01:49;;;;;;;11.68;7.55;;;;;;;9.53;100.00;97974.16;2642061;27;20063;-82
2022/09/25 05:03:05;;;;;;;11.20;7.95;;;;;;;9.57;100.00;97977.53;2641049;28;20323;-84
2022/09/25 05:04:20;;;;;;;13.48;7.95;;;;;;;9.35;100.00;97975.56;2640735;27;20107;-81
2022/09/25 05:05:36;;;;;;;11.65;8.13;;;;;;;9.31;100.00;97976.56;2641766;27;20170;-81
2022/09/25 05:06:53;;;;;;;11.77;7.30;;;;;;;9.29;100.00;97981.00;2643293;28;20391;-83
2022/09/25 05:08:10;;;;;;;13.25;7.68;;;;;;;9.26;100.00;97986.31;2641579;28;20047;-82
2022/09/25 05:09:25;;;;;;;10.68;7.82;;;;;;;9.10;100.00;97978.94;2640809;27;20490;-87
2022/09/25 05:10:43;;;;;;;11.63;8.18;;;;;;;9.10;100.00;97978.94;2641140;27;20047;-83
2022/09/25 05:11:58;;;;;;;8.82;7.03;;;;;;;9.21;100.00;97983.84;2642440;27;20158;-85
2022/09/25 05:13:14;;;;;;;10.88;7.65;;;;;;;8.98;100.00;97984.53;2640825;28;20095;-83
2022/09/25 05:14:29;;;;;;;12.48;8.18;;;;;;;9.21;100.00;97985.59;2641119;28;20560;-83
2022/09/25 05:15:45;;;;;;;11.60;7.93;;;;;;;9.02;100.00;97980.91;2640551;28;20052;-88
2022/09/25 05:17:00;;;;;;;11.20;7.32;;;;;;;8.98;100.00;97980.13;2641172;28;20070;-83
2022/09/25 05:18:22;;;;;;;11.52;7.80;;;;;;;9.32;100.00;97983.50;2642611;28;20055;-83
2022/09/25 05:19:38;;;;;;;14.05;8.88;;;;;;;9.06;100.00;97985.13;2643370;28;20062;-82
2022/09/25 05:20:53;;;;;;;14.52;8.32;;;;;;;8.95;100.00;97974.16;2642161;28;20086;-83
2022/09/25 05:22:09;;;;;;;13.95;8.15;;;;;;;9.17;100.00;97975.22;2642907;28;20104;-83
2022/09/25 05:23:25;;;;;;;14.07;8.80;;;;;;;9.31;100.00;97976.56;2640481;28;20048;-81
2022/09/25 05:24:40;;;;;;;15.20;9.25;;;;;;;9.31;100.00;97979.19;2641668;28;20054;-83
2022/09/25 05:26:01;;;;;;;12.93;8.48;;;;;;;9.40;100.00;97971.06;2641673;28;20463;-82
2022/09/25 05:27:16;;;;;;;13.38;8.63;;;;;;;9.46;100.00;97980.50;2640781;28;20043;-83
2022/09/25 05:28:32;;;;;;;13.82;7.65;;;;;;;9.42;100.00;97969.28;2641481;28;20104;-82
2022/09/25 05:29:48;;;;;;;13.68;7.70;;;;;;;9.43;100.00;97984.03;2640818;28;20058;-82
2022/09/25 05:31:04;;;;;;;11.85;8.27;;;;;;;9.46;100.00;97976.09;2643077;28;20055;-82
2022/09/25 05:32:21;;;;;;;13.30;7.22;;;;;;;9.52;100.00;97979.44;2640305;28;20079;-84
2022/09/25 05:33:37;;;;;;;12.98;8.23;;;;;;;9.55;100.00;97977.56;2641859;28;20044;-81
2022/09/25 05:34:52;;;;;;;13.93;9.13;;;;;;;9.65;100.00;97978.16;2640841;28;20818;-85
2022/09/25 05:36:09;;;;;;;10.88;7.68;;;;;;;9.52;100.00;97977.66;2629709;28;20518;-82
2022/09/25 05:37:24;;;;;;;12.23;7.88;;;;;;;9.66;100.00;97982.47;2633321;28;20070;-84
2022/09/25 05:38:40;;;;;;;13.38;8.63;;;;;;;9.40;100.00;97980.66;2641306;28;20051;-81
2022/09/25 05:39:56;;;;;;;12.88;8.20;;;;;;;9.56;100.00;97981.06;2640615;28;20052;-81
2022/09/25 05:41:12;;;;;;;15.93;8.73;;;;;;;9.65;100.00;97980.78;2640792;28;20404;-82
2022/09/25 05:42:29;;;;;;;10.25;7.53;;;;;;;9.63;100.00;97985.16;2642018;28;20074;-84
2022/09/25 05:43:49;;;;;;;13.57;8.25;;;;;;;9.59;100.00;97983.56;2639733;28;20051;-81
2022/09/25 05:45:05;;;;;;;11.38;7.90;;;;;;;9.67;100.00;97978.09;2640380;28;20043;-86
2022/09/25 05:46:21;;;;;;;12.90;8.00;;;;;;;9.68;100.00;97978.06;2641384;28;20446;-81
2022/09/25 05:47:37;;;;;;;13.20;8.82;;;;;;;9.73;100.00;97972.69;2640469;28;20039;-85
2022/09/25 05:48:53;;;;;;;10.20;7.38;;;;;;;9.66;100.00;97976.38;2630903;28;20040;-83
2022/09/25 05:50:12;;;;;;;14.82;8.25;;;;;;;9.67;100.00;97972.88;2635546;28;20047;-82
2022/09/25 05:51:28;;;;;;;13.35;8.10;;;;;;;9.63;100.00;97969.47;2640641;28;20044;-87
2022/09/25 05:52:43;;;;;;;13.98;8.52;;;;;;;9.38;100.00;97983.34;2641475;28;20602;-82
2022/09/25 05:53:59;;;;;;;12.63;8.65;;;;;;;9.25;100.00;97982.00;2641799;28;20055;-80
2022/09/25 05:55:14;;;;;;;15.25;9.40;;;;;;;9.25;100.00;97977.63;2640161;28;20417;-83
2022/09/25 05:56:30;;;;;;;14.73;8.98;;;;;;;9.19;100.00;97978.66;2640714;28;20123;-83
2022/09/25 05:57:45;;;;;;;13.43;8.77;;;;;;;9.33;100.00;97986.09;2642265;28;20047;-81
2022/09/25 05:59:01;;;;;;;14.75;9.57;;;;;;;9.47;100.00;97980.41;2640481;28;20079;-82
2022/09/25 06:00:17;;;;;;;14.80;9.35;;;;;;;9.53;100.00;97982.00;2640882;28;20036;-81
2022/09/25 06:01:33;;;;;;;15.02;9.40;;;;;;;9.64;100.00;97979.06;2625842;28;21081;-82
2022/09/25 06:02:51;;;;;;;16.05;9.05;;;;;;;9.60;100.00;97973.06;2630495;28;20047;-80
2022/09/25 06:04:08;;;;;;;14.88;9.27;;;;;;;9.82;100.00;97968.91;2641123;28;20214;-84
2022/09/25 06:05:24;;;;;;;15.32;10.02;;;;;;;10.00;100.00;97960.44;2640854;28;20043;-82
2022/09/25 06:06:40;;;;;;;15.75;9.98;;;;;;;10.09;100.00;97968.91;2640910;28;20051;-81
2022/09/25 06:07:55;;;;;;;16.15;10.45;;;;;;;10.07;100.00;97965.50;2640261;28;20420;-83
2022/09/25 06:09:11;;;;;;;13.32;9.55;;;;;;;10.07;100.00;97966.34;2642071;28;20050;-82
2022/09/25 06:10:27;;;;;;;14.27;10.00;;;;;;;9.93;100.00;97963.31;2642199;28;20379;-81
2022/09/25 06:11:46;;;;;;;13.73;9.25;;;;;;;10.23;100.00;97969.28;2640242;28;20047;-82
2022/09/25 06:13:03;;;;;;;15.23;10.07;;;;;;;10.07;100.00;97965.50;2640396;28;20066;-82
2022/09/25 06:14:20;;;;;;;15.63;10.25;;;;;;;10.28;100.00;97969.97;2640435;28;20043;-83
2022/09/25 06:15:37;;;;;;;13.95;9.07;;;;;;;10.31;100.00;97956.78;2641570;28;20180;-82
2022/09/25 06:16:53;;;;;;;15.18;9.88;;;;;;;10.49;100.00;97964.09;2639945;28;20478;-84